createdAt,value
2019-03-18T00:01:54.502Z,5.80
2019-03-18T00:04:23.156Z,3.40
2019-03-18T00:06:51.688Z,3.43
2019-03-18T00:09:20.366Z,5.27
2019-03-18T00:11:49.065Z,3.40
2019-03-18T00:14:17.675Z,3.80
2019-03-18T00:16:46.424Z,4.43
2019-03-18T00:19:14.894Z,3.50
2019-03-18T00:21:43.356Z,2.07
2019-03-18T00:24:11.777Z,1.67
2019-03-18T00:26:40.295Z,1.30
2019-03-18T00:29:08.736Z,1.87
2019-03-18T00:31:37.384Z,1.27
2019-03-18T00:34:05.983Z,2.70
2019-03-18T00:36:34.537Z,1.73
2019-03-18T00:39:04.413Z,2.80
2019-03-18T00:41:33.152Z,2.50
2019-03-18T00:44:01.559Z,1.50
2019-03-18T00:46:30.084Z,1.13
2019-03-18T00:48:58.552Z,1.80
2019-03-18T00:51:28.284Z,1.20
2019-03-18T00:53:56.906Z,0.80
2019-03-18T00:56:25.498Z,0.90
2019-03-18T00:58:54.263Z,0.70
2019-03-18T01:01:22.871Z,0.80
2019-03-18T01:03:51.543Z,1.97
2019-03-18T01:06:22.784Z,1.83
2019-03-18T01:08:51.468Z,0.90
2019-03-18T01:11:19.862Z,0.70
2019-03-18T01:13:48.385Z,0.70
2019-03-18T01:16:16.999Z,0.70
2019-03-18T01:18:47.073Z,0.60
2019-03-18T01:21:15.957Z,0.60
2019-03-18T01:23:44.469Z,1.77
2019-03-18T01:26:13.005Z,3.03
2019-03-18T01:28:41.359Z,0.70
2019-03-18T01:31:09.957Z,0.57
2019-03-18T01:33:39.684Z,0.60
2019-03-18T01:36:08.136Z,0.60
2019-03-18T01:38:36.597Z,0.60
2019-03-18T01:41:05.145Z,0.80
2019-03-18T01:43:33.560Z,2.03
2019-03-18T01:46:02.382Z,0.40
2019-03-18T01:48:30.921Z,0.70
2019-03-18T01:50:59.354Z,0.50
2019-03-18T01:53:27.783Z,0.60
2019-03-18T01:55:56.332Z,0.60
2019-03-18T01:58:24.858Z,0.70
2019-03-18T02:00:53.404Z,0.47
2019-03-18T02:03:21.966Z,0.50
2019-03-18T02:05:50.390Z,0.60
2019-03-18T02:08:19.007Z,3.17
2019-03-18T02:10:47.724Z,0.80
2019-03-18T02:13:16.237Z,0.50
2019-03-18T02:15:53.164Z,2.23
2019-03-18T02:18:15.044Z,3.50
2019-03-18T02:20:43.666Z,0.77
2019-03-18T02:23:12.250Z,0.70
2019-03-18T02:25:40.788Z,2.83
2019-03-18T02:28:09.102Z,0.50
2019-03-18T02:30:37.735Z,0.80
2019-03-18T02:33:06.146Z,0.70
2019-03-18T02:35:34.894Z,0.70
2019-03-18T02:38:03.202Z,0.73
2019-03-18T02:40:31.589Z,0.83
2019-03-18T02:42:59.883Z,0.60
2019-03-18T02:45:28.192Z,0.60
2019-03-18T02:47:56.576Z,0.40
2019-03-18T02:50:25.541Z,0.63
2019-03-18T02:52:54.095Z,0.60
2019-03-18T02:55:22.861Z,0.60
2019-03-18T02:57:51.457Z,0.87
2019-03-18T03:00:19.919Z,0.60
2019-03-18T03:02:48.249Z,0.70
2019-03-18T03:05:16.766Z,0.70
2019-03-18T03:07:45.102Z,1.63
2019-03-18T03:10:13.761Z,0.70
2019-03-18T03:12:42.271Z,0.60
2019-03-18T03:15:10.858Z,0.70
2019-03-18T03:17:39.226Z,0.70
2019-03-18T03:20:07.873Z,0.60
2019-03-18T03:22:36.402Z,1.73
2019-03-18T03:25:05.014Z,0.80
2019-03-18T03:27:33.355Z,0.80
2019-03-18T03:30:02.095Z,0.73
2019-03-18T03:32:30.491Z,0.70
2019-03-18T03:34:59.120Z,0.63
2019-03-18T03:37:27.481Z,1.83
2019-03-18T03:39:57.029Z,0.73
2019-03-18T03:42:25.570Z,0.70
2019-03-18T03:44:54.068Z,0.70
2019-03-18T03:47:22.638Z,1.53
2019-03-18T03:49:51.042Z,0.70
2019-03-18T03:52:19.796Z,0.60
2019-03-18T03:54:48.243Z,0.60
2019-03-18T03:57:16.816Z,0.60
2019-03-18T03:59:45.183Z,0.50
2019-03-18T04:02:13.568Z,0.77
2019-03-18T04:04:42.049Z,0.70
2019-03-18T04:07:10.536Z,0.90
2019-03-18T04:09:39.239Z,0.90
2019-03-18T04:12:07.905Z,1.10
2019-03-18T04:14:37.405Z,0.87
2019-03-18T04:17:06.094Z,0.80
2019-03-18T04:19:34.558Z,0.90
2019-03-18T04:22:04.602Z,0.80
2019-03-18T04:24:33.124Z,0.70
2019-03-18T04:27:01.854Z,0.90
2019-03-18T04:29:30.518Z,0.70
2019-03-18T04:31:59.197Z,0.70
2019-03-18T04:34:27.645Z,0.83
2019-03-18T04:36:56.132Z,0.80
2019-03-18T04:39:24.618Z,0.80
2019-03-18T04:41:53.426Z,0.90
2019-03-18T04:44:22.133Z,0.70
2019-03-18T04:46:50.625Z,1.10
2019-03-18T04:49:19.292Z,0.87
2019-03-18T04:51:47.741Z,0.80
2019-03-18T04:54:16.524Z,0.97
2019-03-18T04:56:45.073Z,0.70
2019-03-18T04:59:13.536Z,1.03
2019-03-18T05:01:42.109Z,1.00
2019-03-18T05:04:11.581Z,1.23
2019-03-18T05:06:41.833Z,0.97
2019-03-18T05:09:10.261Z,1.10
2019-03-18T05:11:39.009Z,0.80
2019-03-18T05:14:07.621Z,1.50
2019-03-18T05:16:36.464Z,1.27
2019-03-18T05:19:04.869Z,1.30
2019-03-18T05:21:33.484Z,1.93
2019-03-18T05:24:02.469Z,1.40
2019-03-18T05:26:32.589Z,1.50
2019-03-18T05:29:01.466Z,1.90
2019-03-18T05:31:29.886Z,2.07
2019-03-18T05:33:58.392Z,5.53
2019-03-18T05:36:28.074Z,6.43
2019-03-18T05:38:56.443Z,3.47
2019-03-18T05:41:24.815Z,2.17
2019-03-18T05:43:53.276Z,1.70
2019-03-18T05:46:21.876Z,2.97
2019-03-18T05:48:50.449Z,1.37
2019-03-18T05:51:38.026Z,1.10
2019-03-18T05:54:06.802Z,1.20
2019-03-18T05:56:35.177Z,1.70
2019-03-18T05:59:03.443Z,2.20
2019-03-18T06:01:32.102Z,5.60
2019-03-18T06:04:00.613Z,12.10
2019-03-18T06:06:29.319Z,10.80
2019-03-18T06:08:58.289Z,5.13
2019-03-18T06:11:26.972Z,3.53
2019-03-18T06:13:56.661Z,4.73
2019-03-18T06:16:26.237Z,7.33
2019-03-18T06:18:54.413Z,5.80
2019-03-18T06:21:23.242Z,3.23
2019-03-18T06:23:52.230Z,4.27
2019-03-18T06:26:20.989Z,3.67
2019-03-18T06:28:49.640Z,3.70
2019-03-18T06:31:18.100Z,2.83
2019-03-18T06:33:46.418Z,2.33
2019-03-18T06:36:14.873Z,3.37
2019-03-18T06:38:43.359Z,4.47
2019-03-18T06:41:11.868Z,4.00
2019-03-18T06:43:40.653Z,4.27
2019-03-18T06:46:09.178Z,12.97
2019-03-18T06:48:37.528Z,9.80
2019-03-18T06:51:06.170Z,5.13
2019-03-18T06:53:34.675Z,3.10
2019-03-18T06:56:03.216Z,2.30
2019-03-18T06:58:31.872Z,1.17
2019-03-18T07:01:00.759Z,1.40
2019-03-18T07:03:29.209Z,2.10
2019-03-18T07:05:57.687Z,2.23
2019-03-18T07:08:26.277Z,2.27
2019-03-18T07:10:54.699Z,2.23
2019-03-18T07:13:23.139Z,1.60
2019-03-18T07:15:51.726Z,1.30
2019-03-18T07:18:20.731Z,1.40
2019-03-18T07:20:49.334Z,1.67
2019-03-18T07:23:17.660Z,2.47
2019-03-18T07:25:46.299Z,1.20
2019-03-18T07:28:15.004Z,2.60
2019-03-18T07:30:43.885Z,2.23
2019-03-18T07:33:13.547Z,2.17
2019-03-18T07:35:42.442Z,2.27
2019-03-18T07:38:10.984Z,1.60
2019-03-18T07:40:39.474Z,2.17
2019-03-18T07:43:09.251Z,2.20
2019-03-18T07:45:37.756Z,2.00
2019-03-18T07:48:06.712Z,2.80
2019-03-18T07:50:35.266Z,1.37
2019-03-18T07:53:03.849Z,1.43
2019-03-18T07:55:32.401Z,1.50
2019-03-18T07:58:00.793Z,1.30
2019-03-18T08:00:29.532Z,1.40
2019-03-18T08:02:58.179Z,1.30
2019-03-18T08:05:26.722Z,1.20
2019-03-18T08:07:55.274Z,1.70
2019-03-18T08:10:23.629Z,2.93
2019-03-18T08:12:52.319Z,3.10
2019-03-18T08:15:20.693Z,1.97
2019-03-18T08:17:49.053Z,1.40
2019-03-18T08:20:17.411Z,2.20
2019-03-18T08:22:45.812Z,2.00
2019-03-18T08:25:14.297Z,2.07
2019-03-18T08:27:42.632Z,1.40
2019-03-18T08:30:11.474Z,1.20
2019-03-18T08:32:39.815Z,1.30
2019-03-18T08:35:08.448Z,2.17
2019-03-18T08:37:36.906Z,1.00
2019-03-18T08:40:06.065Z,1.10
2019-03-18T08:42:35.740Z,1.27
2019-03-18T08:45:04.554Z,1.40
2019-03-18T08:47:33.577Z,0.90
2019-03-18T08:50:02.483Z,1.00
2019-03-18T08:52:31.226Z,1.10
2019-03-18T08:54:59.753Z,1.30
2019-03-18T08:57:28.228Z,1.40
2019-03-18T08:59:56.688Z,1.30
2019-03-18T09:02:25.227Z,1.37
2019-03-18T09:04:54.171Z,1.00
2019-03-18T09:07:22.959Z,1.30
2019-03-18T09:09:51.570Z,1.00
2019-03-18T09:12:20.004Z,1.30
2019-03-18T09:14:48.686Z,1.37
2019-03-18T09:17:17.017Z,1.40
2019-03-18T09:19:46.541Z,1.20
2019-03-18T09:22:14.953Z,1.07
2019-03-18T09:24:43.371Z,1.00
2019-03-18T09:27:11.844Z,1.23
2019-03-18T09:29:40.433Z,1.70
2019-03-18T09:32:08.831Z,2.50
2019-03-18T09:34:37.661Z,2.33
2019-03-18T09:37:05.906Z,2.87
2019-03-18T09:39:34.477Z,3.40
2019-03-18T09:42:03.005Z,2.33
2019-03-18T09:44:31.456Z,1.90
2019-03-18T09:46:59.719Z,2.37
2019-03-18T09:49:28.223Z,2.80
2019-03-18T09:51:56.731Z,2.13
2019-03-18T09:54:25.204Z,3.73
2019-03-18T09:56:53.574Z,2.00
2019-03-18T09:59:22.319Z,2.73
2019-03-18T10:01:50.898Z,2.10
2019-03-18T10:04:19.440Z,2.23
2019-03-18T10:06:48.504Z,1.70
2019-03-18T10:09:18.352Z,2.10
2019-03-18T10:11:46.833Z,2.00
2019-03-18T10:14:15.514Z,2.30
2019-03-18T10:16:44.448Z,1.90
2019-03-18T10:19:15.934Z,2.30
2019-03-18T10:21:44.415Z,2.07
2019-03-18T10:24:12.936Z,1.90
2019-03-18T10:26:41.275Z,2.03
2019-03-18T10:29:09.722Z,1.43
2019-03-18T10:31:38.133Z,1.33
2019-03-18T10:34:06.666Z,1.77
2019-03-18T10:36:35.096Z,1.40
2019-03-18T10:39:05.886Z,1.83
2019-03-18T10:41:34.573Z,1.40
2019-03-18T10:44:03.214Z,1.97
2019-03-18T10:46:31.672Z,2.10
2019-03-18T10:49:00.223Z,2.10
2019-03-18T10:51:31.706Z,3.60
2019-03-18T10:53:59.199Z,2.27
2019-03-18T10:56:27.656Z,1.53
2019-03-18T10:58:55.934Z,2.00
2019-03-18T11:01:25.463Z,1.97
2019-03-18T11:03:54.108Z,1.90
2019-03-18T11:06:22.564Z,3.00
2019-03-18T11:08:51.348Z,2.90
2019-03-18T11:11:19.781Z,2.50
2019-03-18T11:13:48.239Z,2.50
2019-03-18T11:16:16.731Z,3.50
2019-03-18T11:18:45.024Z,2.50
2019-03-18T11:21:13.931Z,2.30
2019-03-18T11:23:42.511Z,2.73
2019-03-18T11:26:11.132Z,2.73
2019-03-18T11:28:39.566Z,2.77
2019-03-18T11:31:08.095Z,3.93
2019-03-18T11:33:36.600Z,2.67
2019-03-18T11:36:05.080Z,2.43
2019-03-18T11:38:33.595Z,2.70
2019-03-18T11:41:02.246Z,3.00
2019-03-18T11:43:32.136Z,2.43
2019-03-18T11:46:00.737Z,2.83
2019-03-18T11:48:29.374Z,2.30
2019-03-18T11:50:57.850Z,2.60
2019-03-18T11:53:26.472Z,2.27
2019-03-18T11:55:55.083Z,2.03
2019-03-18T11:58:23.604Z,2.60
2019-03-18T12:00:52.171Z,2.30
2019-03-18T12:03:20.748Z,2.37
2019-03-18T12:05:49.183Z,2.33
2019-03-18T12:08:17.956Z,3.77
2019-03-18T12:10:46.516Z,3.30
2019-03-18T12:13:14.891Z,2.73
2019-03-18T12:15:43.298Z,5.50
2019-03-18T12:18:11.693Z,2.50
2019-03-18T12:20:40.261Z,3.73
2019-03-18T12:23:08.543Z,2.00
2019-03-18T12:25:37.195Z,2.63
2019-03-18T12:28:05.726Z,2.20
2019-03-18T12:30:34.305Z,2.20
2019-03-18T12:33:03.012Z,2.03
2019-03-18T12:35:31.585Z,2.40
2019-03-18T12:38:00.292Z,10.60
2019-03-18T12:40:28.701Z,3.20
2019-03-18T12:42:57.550Z,5.77
2019-03-18T12:45:26.060Z,2.00
2019-03-18T12:47:54.383Z,3.83
2019-03-18T12:50:38.773Z,1.90
2019-03-18T12:52:53.270Z,1.70
2019-03-18T12:55:21.819Z,2.93
2019-03-18T12:57:50.416Z,1.63
2019-03-18T13:00:20.521Z,3.90
2019-03-18T13:02:49.120Z,3.17
2019-03-18T13:05:18.078Z,4.03
2019-03-18T13:07:46.991Z,4.13
2019-03-18T13:10:15.513Z,3.33
2019-03-18T13:12:44.010Z,2.30
2019-03-18T13:15:13.574Z,2.30
2019-03-18T13:17:43.871Z,2.80
2019-03-18T13:20:13.017Z,3.20
2019-03-18T13:22:41.633Z,4.13
2019-03-18T13:25:10.520Z,5.20
2019-03-18T13:27:39.075Z,3.43
2019-03-18T13:30:10.501Z,2.10
2019-03-18T13:32:39.372Z,3.30
2019-03-18T13:35:07.968Z,2.13
2019-03-18T13:37:36.600Z,2.70
2019-03-18T13:40:06.474Z,2.07
2019-03-18T13:42:35.271Z,2.30
2019-03-18T13:45:03.945Z,2.30
2019-03-18T13:47:32.779Z,3.00
2019-03-18T13:50:01.333Z,2.13
2019-03-18T13:52:43.012Z,3.07
2019-03-18T13:55:12.060Z,2.20
2019-03-18T13:57:40.971Z,2.43
2019-03-18T14:00:12.090Z,2.67
2019-03-18T14:02:40.824Z,2.03
2019-03-18T14:05:10.408Z,2.40
2019-03-18T14:07:40.003Z,3.77
2019-03-18T14:10:10.059Z,2.10
2019-03-18T14:12:38.651Z,2.07
2019-03-18T14:15:08.875Z,3.80
2019-03-18T14:17:37.454Z,3.63
2019-03-18T14:20:06.170Z,2.67
2019-03-18T14:22:34.647Z,2.43
2019-03-18T14:25:03.072Z,3.03
2019-03-18T14:27:31.832Z,5.13
2019-03-18T14:30:00.362Z,2.13
2019-03-18T14:32:29.064Z,3.67
2019-03-18T14:34:57.476Z,3.40
2019-03-18T14:37:26.154Z,3.83
2019-03-18T14:39:54.663Z,2.33
2019-03-18T14:42:22.970Z,2.57
2019-03-18T14:44:51.579Z,2.67
2019-03-18T14:47:19.912Z,2.50
2019-03-18T14:49:48.207Z,5.27
2019-03-18T14:52:17.027Z,2.30
2019-03-18T14:54:45.522Z,3.00
2019-03-18T14:57:13.982Z,4.10
2019-03-18T14:59:42.532Z,5.00
2019-03-18T15:02:11.034Z,1.83
2019-03-18T15:04:39.653Z,2.00
2019-03-18T15:07:08.214Z,1.90
2019-03-18T15:09:37.008Z,2.80
2019-03-18T15:12:05.496Z,1.97
2019-03-18T15:14:33.916Z,2.40
2019-03-18T15:17:02.470Z,2.07
2019-03-18T15:19:31.006Z,2.00
2019-03-18T15:21:59.429Z,2.00
2019-03-18T15:24:27.906Z,2.20
2019-03-18T15:26:56.551Z,2.80
2019-03-18T15:29:25.113Z,4.90
2019-03-18T15:31:53.775Z,2.43
2019-03-18T15:34:22.232Z,2.83
2019-03-18T15:36:50.765Z,2.30
2019-03-18T15:39:19.156Z,1.87
2019-03-18T15:41:47.674Z,2.20
2019-03-18T15:44:16.412Z,3.87
2019-03-18T15:46:44.869Z,3.90
2019-03-18T15:49:13.580Z,2.50
2019-03-18T15:51:42.230Z,2.10
2019-03-18T15:54:10.754Z,2.13
2019-03-18T15:56:39.170Z,2.20
2019-03-18T15:59:07.721Z,2.43
2019-03-18T16:01:36.143Z,2.70
2019-03-18T16:04:04.511Z,3.03
2019-03-18T16:06:32.978Z,3.43
2019-03-18T16:09:01.374Z,4.00
2019-03-18T16:11:30.328Z,2.30
2019-03-18T16:13:58.755Z,2.83
2019-03-18T16:16:27.164Z,3.67
2019-03-18T16:18:55.492Z,3.97
2019-03-18T16:21:24.124Z,5.00
2019-03-18T16:23:52.726Z,3.93
2019-03-18T16:26:22.286Z,3.07
2019-03-18T16:28:50.713Z,4.90
2019-03-18T16:31:19.197Z,7.00
2019-03-18T16:33:48.892Z,2.80
2019-03-18T16:36:17.311Z,3.47
2019-03-18T16:38:45.903Z,3.07
2019-03-18T16:41:14.575Z,3.60
2019-03-18T16:43:43.113Z,6.13
2019-03-18T16:46:11.673Z,3.77
2019-03-18T16:48:40.536Z,3.33
2019-03-18T16:51:09.251Z,4.87
2019-03-18T16:53:49.435Z,5.40
2019-03-18T16:56:17.935Z,4.80
2019-03-18T16:58:46.447Z,2.93
2019-03-18T17:01:14.731Z,3.20
2019-03-18T17:03:43.112Z,3.33
2019-03-18T17:06:11.544Z,5.20
2019-03-18T17:08:40.062Z,2.60
2019-03-18T17:11:08.652Z,3.20
2019-03-18T17:13:36.775Z,4.07
2019-03-18T17:16:04.956Z,2.97
2019-03-18T17:18:33.478Z,2.50
2019-03-18T17:21:02.036Z,3.03
2019-03-18T17:23:30.728Z,3.13
2019-03-18T17:25:59.476Z,6.93
2019-03-18T17:28:28.589Z,3.70
2019-03-18T17:30:59.161Z,4.93
2019-03-18T17:33:27.997Z,4.40
2019-03-18T17:35:56.519Z,3.43
2019-03-18T17:38:25.076Z,5.77
2019-03-18T17:40:54.645Z,4.87
2019-03-18T17:43:23.183Z,3.17
2019-03-18T17:45:51.890Z,3.43
2019-03-18T17:48:21.748Z,3.07
2019-03-18T17:50:50.030Z,5.73
2019-03-18T17:53:18.197Z,4.17
2019-03-18T17:55:46.311Z,3.10
2019-03-18T17:58:14.441Z,4.07
2019-03-18T18:00:45.371Z,5.47
2019-03-18T18:03:13.507Z,5.00
2019-03-18T18:05:41.617Z,7.93
2019-03-18T18:08:10.825Z,6.20
2019-03-18T18:10:39.986Z,7.60
2019-03-18T18:13:08.168Z,5.87
2019-03-18T18:15:36.181Z,8.33
2019-03-18T18:18:19.005Z,14.33
2019-03-18T18:20:52.968Z,8.83
2019-03-18T18:23:24.161Z,6.93
2019-03-18T18:25:54.222Z,5.33
2019-03-18T18:28:24.784Z,5.20
2019-03-18T18:30:57.140Z,5.40
2019-03-18T18:33:25.413Z,5.53
2019-03-18T18:36:10.951Z,4.87
2019-03-18T18:38:44.499Z,5.13
2019-03-18T18:41:21.866Z,5.20
2019-03-18T19:24:23.749Z,20.27
2019-03-18T19:28:20.487Z,6.00
2019-03-18T19:31:02.089Z,6.10
2019-03-18T19:33:31.644Z,5.60
2019-03-18T19:36:23.277Z,6.57
2019-03-18T19:38:53.355Z,5.90
2019-03-18T19:41:24.118Z,6.27
2019-03-18T19:43:53.007Z,6.70
2019-03-18T19:49:24.690Z,9.10
2019-03-18T19:51:55.481Z,7.13
2019-03-18T19:54:23.399Z,7.73
2019-03-18T19:56:55.403Z,6.57
2019-03-18T19:59:33.238Z,6.50
2019-03-18T20:02:01.409Z,7.30
2019-03-18T20:04:31.710Z,7.37
2019-03-18T20:07:00.024Z,8.03
2019-03-18T20:09:28.022Z,7.90
2019-03-18T20:11:56.104Z,9.53
2019-03-18T20:14:27.904Z,7.20
2019-03-18T20:16:57.263Z,8.07
2019-03-18T20:19:25.887Z,6.60
2019-03-18T20:21:54.094Z,7.53
2019-03-18T20:24:24.111Z,7.53
2019-03-18T20:26:54.026Z,9.37
2019-03-18T20:29:24.397Z,9.60
2019-03-18T20:31:52.367Z,7.80
2019-03-18T20:34:21.557Z,8.67
2019-03-18T20:36:49.510Z,7.90
2019-03-18T20:39:24.818Z,7.83
2019-03-18T20:41:52.933Z,6.63
2019-03-18T20:44:20.925Z,7.60
2019-03-18T20:46:50.860Z,7.83
2019-03-18T20:49:19.142Z,6.40
2019-03-18T20:51:52.400Z,7.13
2019-03-18T20:54:20.331Z,7.63
2019-03-18T20:56:48.551Z,7.77
2019-03-18T20:59:16.461Z,7.27
2019-03-18T21:01:44.883Z,7.33
2019-03-18T21:04:12.747Z,8.80
2019-03-18T21:06:40.892Z,7.07
2019-03-18T21:09:08.766Z,10.03
2019-03-18T21:11:39.825Z,7.03
2019-03-18T21:14:10.564Z,10.87
2019-03-18T21:16:38.555Z,7.67
2019-03-18T21:19:06.506Z,8.20
2019-03-18T21:21:34.696Z,8.80
2019-03-18T21:24:02.746Z,8.90
2019-03-18T21:26:31.814Z,8.37
2019-03-18T21:29:00.051Z,6.53
2019-03-18T21:31:28.381Z,8.30
2019-03-18T21:33:56.264Z,11.20
2019-03-18T21:36:37.061Z,10.87
2019-03-18T21:38:54.401Z,7.00
2019-03-18T21:41:23.482Z,8.07
2019-03-18T21:43:51.434Z,7.30
2019-03-18T21:46:19.577Z,8.87
2019-03-18T21:48:47.733Z,8.37
2019-03-18T21:51:16.244Z,6.93
2019-03-18T21:53:44.511Z,8.23
2019-03-18T21:56:12.819Z,7.67
2019-03-18T21:58:40.944Z,9.97
2019-03-18T22:01:09.210Z,8.53
2019-03-18T22:03:37.088Z,11.83
2019-03-18T22:06:05.321Z,7.90
2019-03-18T22:08:33.224Z,7.87
2019-03-18T22:11:01.637Z,7.77
2019-03-18T22:13:29.457Z,7.17
2019-03-18T22:15:57.686Z,5.97
2019-03-18T22:18:25.620Z,6.77
2019-03-18T22:20:53.677Z,7.47
2019-03-18T22:23:21.684Z,8.97
2019-03-18T22:25:49.734Z,8.70
2019-03-18T22:28:17.753Z,6.00
2019-03-18T22:30:45.824Z,6.40
2019-03-18T22:33:13.931Z,5.63
2019-03-18T22:35:42.228Z,5.87
2019-03-18T22:38:11.412Z,6.97
2019-03-18T22:40:39.593Z,4.97
2019-03-18T22:43:07.462Z,5.70
2019-03-18T22:45:35.366Z,7.90
2019-03-18T22:48:03.401Z,5.47
2019-03-18T22:50:31.421Z,5.33
2019-03-18T22:52:59.380Z,5.73
2019-03-18T22:55:27.374Z,7.03
2019-03-18T22:57:55.399Z,6.10
2019-03-18T23:10:27.797Z,7.47
2019-03-18T23:12:56.045Z,9.07
2019-03-18T23:15:24.234Z,6.83
2019-03-18T23:17:52.514Z,7.53
2019-03-18T23:20:20.494Z,7.37
2019-03-18T23:22:48.654Z,7.77
2019-03-18T23:25:17.001Z,8.97
2019-03-18T23:27:44.932Z,7.30
2019-03-18T23:30:13.162Z,6.77
2019-03-18T23:32:41.235Z,7.53
2019-03-18T23:35:10.288Z,6.67
2019-03-18T23:37:38.286Z,8.10
2019-03-18T23:40:06.216Z,6.97
2019-03-18T23:42:34.338Z,8.63
2019-03-18T23:45:02.265Z,8.13
2019-03-18T23:47:31.543Z,8.23
2019-03-18T23:49:59.525Z,10.30
2019-03-18T23:52:27.449Z,7.00
2019-03-18T23:54:55.571Z,24.07
2019-03-18T23:57:23.661Z,25.53
2019-03-18T23:59:51.514Z,30.90
